Time;durP1;ratioP1;P1;durP2;ratioP2;P2;SDS_P1;SDS_P2;PMS_P1;PMS_P2;Temp;Humidity;BMP_temperature;BMP_pressure;BME280_temperature;BME280_humidity;BME280_pressure;Samples;Min_cycle;Max_cycle;Signal;HPM_P1;HPM_P2
2024/03/07 00:00:34;;;;;;;;;;;;;;;16.31;48.25;101037.44;5036565;28;1067;-59
2024/03/07 00:03:00;;;;;;;;;;;;;;;15.96;49.06;101041.59;5036723;28;1905;-59
2024/03/07 00:05:26;;;;;;;;;;;;;;;15.74;49.73;101042.50;5036728;28;1151;-59
2024/03/07 00:07:52;;;;;;;;;;;;;;;15.57;50.15;101044.53;5036872;28;1060;-59
2024/03/07 00:10:17;;;;;;;;;;;;;;;15.49;50.20;101031.31;5029077;28;1971;-59
2024/03/07 00:12:43;;;;;;;;;;;;;;;17.07;46.59;101043.59;5036399;28;1050;-59
2024/03/07 00:15:09;;;;;;;;;;;;;;;17.90;44.32;101044.50;5036416;28;1422;-59
2024/03/07 00:17:35;;;;;;;;;;;;;;;16.77;47.08;101045.09;5036498;28;1031;-59
2024/03/07 00:20:01;;;;;;;;;;;;;;;16.20;48.22;101046.69;5023400;28;1175;-58
2024/03/07 00:22:29;;;;;;;;;;;;;;;16.00;48.77;101045.47;5035440;28;1907;-59
2024/03/07 00:24:55;;;;;;;;;;;;;;;15.74;49.37;101044.44;5030827;28;1112;-60
2024/03/07 00:27:21;;;;;;;;;;;;;;;15.60;49.82;101040.44;5029358;28;1008;-59
2024/03/07 00:29:52;;;;;;;;;;;;;;;17.13;46.15;101045.25;5036484;28;1126;-59
2024/03/07 00:32:19;;;;;;;;;;;;;;;17.02;46.06;101038.88;5036044;28;1079;-59
2024/03/07 00:34:44;;;;;;;;;;;;;;;16.27;48.16;101035.50;5029734;28;882;-59
2024/03/07 00:37:10;;;;;;;;;;;;;;;15.88;49.00;101028.38;5035927;28;1144;-59
2024/03/07 00:39:35;;;;;;;;;;;;;;;15.67;49.51;101036.41;5018189;28;2413;-59
2024/03/07 00:42:02;;;;;;;;;;;;;;;16.96;46.74;101036.38;5029987;28;1044;-59
2024/03/07 00:44:27;;;;;;;;;;;;;;;17.68;44.71;101026.34;5035914;28;1901;-57
2024/03/07 00:46:53;;;;;;;;;;;;;;;16.65;47.13;101026.09;5035262;28;1004;-59
2024/03/07 00:49:18;;;;;;;;;;;;;;;16.19;48.14;101029.41;5035496;28;1087;-60
2024/03/07 00:51:44;;;;;;;;;;;;;;;15.87;49.07;101026.72;5036058;28;1036;-60
2024/03/07 00:54:12;;;;;;;;;;;;;;;15.69;49.35;101031.47;5036188;28;1059;-59
2024/03/07 00:56:38;;;;;;;;;;;;;;;16.71;47.34;101033.25;5035668;28;1185;-58
2024/03/07 00:59:04;;;;;;;;;;;;;;;17.57;44.96;101020.03;5035476;28;1136;-60
2024/03/07 01:01:29;;;;;;;;;;;;;;;16.57;47.40;101023.88;5036102;28;1027;-61
2024/03/07 01:03:55;;;;;;;;;;;;;;;16.07;48.53;101015.06;5036009;28;1960;-61
2024/03/07 01:06:20;;;;;;;;;;;;;;;15.83;48.96;101017.38;5035714;28;1092;-59
2024/03/07 01:08:46;;;;;;;;;;;;;;;15.64;49.52;101022.38;5036314;28;1039;-60
2024/03/07 01:11:12;;;;;;;;;;;;;;;16.14;48.46;101015.66;5031213;28;2360;-62
2024/03/07 01:13:40;;;;;;;;;;;;;;;17.48;45.09;101023.59;5035723;28;1051;-61
2024/03/07 01:16:06;;;;;;;;;;;;;;;17.02;46.04;101016.09;5035597;28;1102;-59
2024/03/07 01:18:34;;;;;;;;;;;;;;;16.35;47.63;101016.59;5035791;28;1106;-61
2024/03/07 01:21:00;;;;;;;;;;;;;;;16.00;48.82;101023.53;5035612;28;1114;-60
2024/03/07 01:23:25;;;;;;;;;;;;;;;15.79;48.99;101018.97;5031639;28;1898;-63
2024/03/07 01:25:51;;;;;;;;;;;;;;;16.42;47.68;101022.72;5036072;28;1003;-59
2024/03/07 01:28:18;;;;;;;;;;;;;;;17.68;44.55;101025.53;5022781;28;1111;-59
2024/03/07 01:30:43;;;;;;;;;;;;;;;16.99;46.20;101025.69;5022363;28;1110;-59
2024/03/07 01:33:09;;;;;;;;;;;;;;;16.41;47.46;101034.78;5022253;28;1000;-61
2024/03/07 01:35:35;;;;;;;;;;;;;;;16.01;48.42;101027.09;5034883;28;953;-60
2024/03/07 01:38:03;;;;;;;;;;;;;;;15.72;49.29;101030.97;5022494;28;1074;-60
2024/03/07 01:40:28;;;;;;;;;;;;;;;15.89;48.81;101028.13;5033995;28;2398;-59
2024/03/07 01:42:54;;;;;;;;;;;;;;;17.37;45.39;101026.31;5035629;28;1905;-59
2024/03/07 01:45:19;;;;;;;;;;;;;;;17.00;46.02;101030.09;5035273;28;1202;-60
2024/03/07 01:47:45;;;;;;;;;;;;;;;16.30;47.77;101035.81;5035682;28;995;-60
2024/03/07 01:50:10;;;;;;;;;;;;;;;15.98;48.45;101038.63;5033259;28;1103;-60
2024/03/07 01:52:36;;;;;;;;;;;;;;;15.68;49.15;101024.38;5023431;28;949;-60
2024/03/07 01:55:02;;;;;;;;;;;;;;;15.68;49.21;101032.59;5034152;28;1148;-62
2024/03/07 01:57:28;;;;;;;;;;;;;;;17.24;45.66;101037.88;5067370;28;1028;-60
2024/03/07 01:59:54;;;;;;;;;;;;;;;17.06;45.77;101030.94;5021750;28;879;-60
2024/03/07 02:02:19;;;;;;;;;;;;;;;16.30;47.50;101034.97;5038359;28;1187;-58
2024/03/07 02:04:45;;;;;;;;;;;;;;;15.89;48.68;101030.88;5029984;28;1914;-59
2024/03/07 02:07:13;;;;;;;;;;;;;;;15.67;49.07;101033.66;5038853;28;1031;-60
2024/03/07 02:09:38;;;;;;;;;;;;;;;16.56;47.29;101028.53;5025214;28;2608;-59
2024/03/07 02:12:04;;;;;;;;;;;;;;;17.74;44.32;101030.75;5038653;28;841;-59
2024/03/07 02:14:30;;;;;;;;;;;;;;;16.79;46.40;101034.66;5039135;28;1059;-59
2024/03/07 02:16:58;;;;;;;;;;;;;;;16.18;47.86;101032.44;5039307;28;889;-60
2024/03/07 02:19:24;;;;;;;;;;;;;;;15.87;48.71;101026.72;5038540;28;1114;-59
2024/03/07 02:21:49;;;;;;;;;;;;;;;15.67;49.33;101039.16;5025698;28;924;-59
2024/03/07 02:24:15;;;;;;;;;;;;;;;15.47;49.48;101031.56;5037963;28;1984;-61
2024/03/07 02:26:41;;;;;;;;;;;;;;;17.00;46.27;101043.00;5038571;28;1107;-59
2024/03/07 02:29:07;;;;;;;;;;;;;;;17.59;44.68;101041.75;5038091;28;1051;-59
2024/03/07 02:31:36;;;;;;;;;;;;;;;16.57;46.92;101037.59;5038238;28;1047;-59
2024/03/07 02:34:07;;;;;;;;;;;;;;;16.10;48.00;101041.16;5038207;28;1094;-59
2024/03/07 02:36:33;;;;;;;;;;;;;;;15.80;48.91;101040.66;5019358;28;1031;-58
2024/03/07 02:38:59;;;;;;;;;;;;;;;15.56;49.40;101037.41;5018973;28;2301;-57
2024/03/07 02:41:25;;;;;;;;;;;;;;;17.12;45.98;101040.84;5070331;28;1035;-57
2024/03/07 02:43:51;;;;;;;;;;;;;;;17.26;45.11;101046.66;5038278;28;1913;-57
2024/03/07 02:46:16;;;;;;;;;;;;;;;16.40;47.36;101041.34;5038386;28;1135;-57
2024/03/07 02:48:42;;;;;;;;;;;;;;;16.07;48.07;101042.50;5038045;28;1058;-57
2024/03/07 02:51:08;;;;;;;;;;;;;;;15.84;48.64;101049.19;5038339;28;1133;-57
2024/03/07 02:53:33;;;;;;;;;;;;;;;15.54;49.29;101048.63;5038119;28;1174;-56
2024/03/07 02:55:59;;;;;;;;;;;;;;;15.90;48.89;101048.13;5030999;28;1055;-57
2024/03/07 02:58:24;;;;;;;;;;;;;;;17.35;45.23;101047.78;5031449;28;997;-57
2024/03/07 03:00:59;;;;;;;;;;;;;;;17.54;44.30;101047.25;5037847;28;1098;-57
2024/03/07 03:03:25;;;;;;;;;;;;;;;16.56;46.65;101044.16;5037702;28;1913;-57
2024/03/07 03:05:51;;;;;;;;;;;;;;;16.08;48.13;101050.47;5037969;28;1012;-57
2024/03/07 03:08:17;;;;;;;;;;;;;;;15.82;48.70;101059.59;5037753;28;1030;-57
2024/03/07 03:10:44;;;;;;;;;;;;;;;15.58;49.35;101051.66;5036766;28;2906;-57
2024/03/07 03:13:09;;;;;;;;;;;;;;;16.21;47.69;101051.09;5022827;28;1100;-57
2024/03/07 03:15:35;;;;;;;;;;;;;;;17.54;44.48;101050.81;5026806;28;1067;-57
2024/03/07 03:18:00;;;;;;;;;;;;;;;17.09;45.33;101046.88;5036189;28;1087;-57
2024/03/07 03:20:33;;;;;;;;;;;;;;;16.27;47.59;101046.47;5026183;28;1202;-56
2024/03/07 03:22:59;;;;;;;;;;;;;;;15.98;48.27;101055.88;5037286;28;1933;-58
2024/03/07 03:25:24;;;;;;;;;;;;;;;15.70;48.81;101049.59;5037260;28;1017;-57
2024/03/07 03:27:50;;;;;;;;;;;;;;;15.96;48.51;101051.75;5037473;28;1096;-57
2024/03/07 03:30:18;;;;;;;;;;;;;;;17.46;44.74;101056.88;5037476;28;1071;-57
2024/03/07 03:32:44;;;;;;;;;;;;;;;17.31;44.91;101065.91;5037270;28;1110;-57
2024/03/07 03:35:13;;;;;;;;;;;;;;;16.42;46.93;101061.13;5036931;28;1118;-58
2024/03/07 03:37:47;;;;;;;;;;;;;;;16.01;47.95;101060.03;5037225;28;1126;-57
2024/03/07 03:40:12;;;;;;;;;;;;;;;15.80;48.50;101056.28;5037323;28;2676;-56
2024/03/07 03:42:38;;;;;;;;;;;;;;;15.77;48.63;101064.97;5036592;28;1971;-57
2024/03/07 03:45:07;;;;;;;;;;;;;;;17.26;45.43;101058.47;5025824;28;1055;-55
2024/03/07 03:47:36;;;;;;;;;;;;;;;17.47;44.67;101060.44;5035471;28;1163;-56
2024/03/07 03:50:02;;;;;;;;;;;;;;;16.47;46.89;101063.06;5035886;28;1130;-57
2024/03/07 03:52:28;;;;;;;;;;;;;;;16.05;48.10;101056.47;5023227;28;1111;-57
2024/03/07 03:54:54;;;;;;;;;;;;;;;15.82;48.42;101062.31;5036974;28;1460;-58
2024/03/07 03:57:20;;;;;;;;;;;;;;;15.71;48.90;101056.75;5036939;28;985;-59
2024/03/07 03:59:45;;;;;;;;;;;;;;;17.30;45.22;101058.75;5036520;28;1154;-57
2024/03/07 04:02:11;;;;;;;;;;;;;;;17.28;45.04;101055.47;5031612;28;1246;-57
2024/03/07 04:04:39;;;;;;;;;;;;;;;16.35;47.32;101049.53;5029322;28;1989;-57
2024/03/07 04:07:05;;;;;;;;;;;;;;;16.04;47.87;101054.81;5022449;28;1062;-57
2024/03/07 04:09:31;;;;;;;;;;;;;;;15.84;48.50;101049.19;5036511;28;2583;-56
2024/03/07 04:11:57;;;;;;;;;;;;;;;15.66;48.95;101059.41;5035944;28;1035;-56
2024/03/07 04:14:23;;;;;;;;;;;;;;;16.48;46.90;101056.50;5024792;28;1155;-59
2024/03/07 04:16:48;;;;;;;;;;;;;;;17.66;44.24;101061.56;5035095;28;1067;-58
2024/03/07 04:19:14;;;;;;;;;;;;;;;16.82;45.97;101058.84;5025168;28;1039;-58
2024/03/07 04:21:39;;;;;;;;;;;;;;;16.14;47.74;101054.06;5034854;28;1123;-59
2024/03/07 04:24:05;;;;;;;;;;;;;;;15.85;48.60;101067.28;5033540;28;1891;-58
2024/03/07 04:26:30;;;;;;;;;;;;;;;15.69;48.75;101064.38;5031217;28;1156;-58
2024/03/07 04:28:57;;;;;;;;;;;;;;;16.70;46.70;101064.53;5028478;28;1120;-58
2024/03/07 04:31:23;;;;;;;;;;;;;;;17.81;43.73;101063.50;5036446;28;1218;-60
2024/03/07 04:33:50;;;;;;;;;;;;;;;16.78;46.24;101068.72;5035730;28;1087;-58
2024/03/07 04:36:15;;;;;;;;;;;;;;;16.19;47.39;101067.84;5035878;28;1071;-58
2024/03/07 04:38:44;;;;;;;;;;;;;;;15.91;48.28;101071.75;5024705;28;1063;-58
2024/03/07 04:41:10;;;;;;;;;;;;;;;15.77;48.51;101067.72;5022557;28;2544;-57
2024/03/07 04:43:36;;;;;;;;;;;;;;;15.63;48.98;101067.34;5035995;28;1973;-59
2024/03/07 04:46:01;;;;;;;;;;;;;;;17.20;45.20;101076.03;5035774;28;1141;-56
2024/03/07 04:48:27;;;;;;;;;;;;;;;17.00;45.69;101076.81;5036157;28;1059;-55
2024/03/07 04:50:53;;;;;;;;;;;;;;;16.31;47.38;101080.53;5036057;28;1196;-51
2024/03/07 04:53:18;;;;;;;;;;;;;;;15.89;48.30;101074.75;5036227;28;1122;-56
2024/03/07 04:55:44;;;;;;;;;;;;;;;15.66;48.94;101073.13;5022422;28;1192;-60
2024/03/07 04:58:09;;;;;;;;;;;;;;;17.21;45.54;101082.38;5035810;28;1110;-57
2024/03/07 05:00:35;;;;;;;;;;;;;;;17.37;44.83;101091.47;5027965;28;1171;-57
2024/03/07 05:03:00;;;;;;;;;;;;;;;16.40;47.15;101088.00;5035735;28;1909;-57
2024/03/07 05:05:26;;;;;;;;;;;;;;;16.10;48.02;101096.00;5035635;28;1059;-58
2024/03/07 05:07:52;;;;;;;;;;;;;;;15.74;49.07;101093.78;5036150;28;1160;-58
2024/03/07 05:10:17;;;;;;;;;;;;;;;16.23;47.70;101096.41;5027094;28;2461;-59
2024/03/07 05:12:43;;;;;;;;;;;;;;;17.61;44.63;101102.78;5035736;28;1098;-57
2024/03/07 05:15:11;;;;;;;;;;;;;;;16.65;46.58;101100.22;5022475;28;1238;-56
2024/03/07 05:17:38;;;;;;;;;;;;;;;16.08;47.59;101094.34;5035919;28;1138;-57
2024/03/07 05:20:10;;;;;;;;;;;;;;;16.63;47.30;101101.59;5035840;28;1071;-55
2024/03/07 05:22:50;;;;;;;;;;;;;;;16.14;48.12;101097.16;5035673;28;1902;-58
2024/03/07 05:25:18;;;;;;;;;;;;;;;15.74;48.09;101093.78;5021921;28;1016;-59
2024/03/07 05:27:50;;;;;;;;;;;;;;;17.21;46.07;101105.19;5023698;28;1178;-60
2024/03/07 05:30:15;;;;;;;;;;;;;;;16.15;48.16;101107.03;5033919;28;2366;-61
2024/03/07 05:32:41;;;;;;;;;;;;;;;17.38;45.89;101102.19;5035918;28;1076;-62
2024/03/07 05:35:07;;;;;;;;;;;;;;;17.27;45.90;101106.84;5037444;28;1058;-61
2024/03/07 05:37:32;;;;;;;;;;;;;;;16.39;47.47;101107.47;5039458;28;908;-61
2024/03/07 05:39:58;;;;;;;;;;;;;;;16.28;47.67;101103.81;5039486;28;1145;-60
2024/03/07 05:42:25;;;;;;;;;;;;;;;16.80;47.23;101115.94;5039764;28;1063;-62
2024/03/07 05:44:50;;;;;;;;;;;;;;;16.22;47.54;101110.38;5038280;28;1906;-62
2024/03/07 05:47:17;;;;;;;;;;;;;;;16.06;47.66;101118.50;5039727;28;1214;-61
2024/03/07 05:49:42;;;;;;;;;;;;;;;17.08;46.38;101116.66;5038663;28;987;-61
2024/03/07 05:52:08;;;;;;;;;;;;;;;16.23;47.77;101120.28;5039484;28;1091;-62
2024/03/07 05:54:34;;;;;;;;;;;;;;;15.90;47.54;101116.69;5039327;28;1067;-61
2024/03/07 05:57:00;;;;;;;;;;;;;;;16.23;47.96;101121.09;5038581;28;1107;-61
2024/03/07 05:59:25;;;;;;;;;;;;;;;16.48;47.94;101124.28;5039081;28;1107;-61
2024/03/07 06:01:51;;;;;;;;;;;;;;;16.06;48.28;101129.47;5039111;28;928;-62
2024/03/07 06:04:16;;;;;;;;;;;;;;;17.67;45.79;101128.38;5025768;28;1902;-62
2024/03/07 06:06:42;;;;;;;;;;;;;;;16.46;47.69;101126.47;5038936;28;1098;-61
2024/03/07 06:09:13;;;;;;;;;;;;;;;16.65;47.89;101130.44;5038695;28;1099;-59
2024/03/07 06:11:41;;;;;;;;;;;;;;;16.90;47.14;101139.94;5029466;28;1171;-59
2024/03/07 06:14:07;;;;;;;;;;;;;;;16.28;47.94;101125.78;5037938;28;978;-59
2024/03/07 06:16:33;;;;;;;;;;;;;;;17.48;46.41;101144.56;5038404;28;1095;-59
2024/03/07 06:19:02;;;;;;;;;;;;;;;16.59;47.71;101148.81;5038656;28;1051;-59
2024/03/07 06:21:31;;;;;;;;;;;;;;;18.09;44.82;101147.44;5038205;28;1070;-59
2024/03/07 06:24:00;;;;;;;;;;;;;;;18.01;44.92;101138.91;5028664;28;1910;-61
2024/03/07 06:26:37;;;;;;;;;;;;;;;16.80;47.40;101134.34;5034084;28;1182;-61
2024/03/07 06:29:06;;;;;;;;;;;;;;;16.51;47.35;101141.06;5060955;28;1147;-61
2024/03/07 06:31:32;;;;;;;;;;;;;;;16.78;47.34;101148.34;5038005;28;984;-60
2024/03/07 06:33:57;;;;;;;;;;;;;;;16.72;47.49;101144.75;5038384;28;1031;-60
2024/03/07 06:36:24;;;;;;;;;;;;;;;17.17;47.29;101147.22;5025026;28;1127;-60
2024/03/07 06:38:49;;;;;;;;;;;;;;;18.12;44.75;101146.88;5025900;28;1024;-60
2024/03/07 06:41:15;;;;;;;;;;;;;;;16.92;47.39;101148.75;5038150;28;1067;-61
2024/03/07 06:43:41;;;;;;;;;;;;;;;16.79;47.85;101140.94;5038387;28;1894;-60
2024/03/07 06:46:09;;;;;;;;;;;;;;;18.03;45.25;101142.22;5017569;28;1118;-60
2024/03/07 06:48:35;;;;;;;;;;;;;;;16.83;47.58;101126.41;5022629;28;1142;-60
2024/03/07 06:51:00;;;;;;;;;;;;;;;16.54;47.23;101131.47;5038248;28;1110;-60
2024/03/07 06:53:28;;;;;;;;;;;;;;;16.36;47.17;101122.56;5025567;28;1070;-60
2024/03/07 06:55:54;;;;;;;;;;;;;;;17.52;46.71;101132.75;5037642;28;1192;-59
2024/03/07 06:58:22;;;;;;;;;;;;;;;16.71;47.96;101131.28;5037825;28;1023;-60
2024/03/07 07:00:51;;;;;;;;;;;;;;;16.40;47.75;101129.16;5024953;28;1135;-59
2024/03/07 07:03:18;;;;;;;;;;;;;;;16.29;47.36;101134.84;5037193;28;1968;-61
2024/03/07 07:05:44;;;;;;;;;;;;;;;17.30;47.07;101137.63;5025716;28;1126;-59
2024/03/07 07:08:10;;;;;;;;;;;;;;;16.46;47.91;101142.94;5024028;28;1106;-59
2024/03/07 07:10:36;;;;;;;;;;;;;;;16.12;47.80;101134.97;5038021;28;1071;-57
2024/03/07 07:13:04;;;;;;;;;;;;;;;15.99;47.13;101134.34;5037467;28;1119;-61
2024/03/07 07:15:29;;;;;;;;;;;;;;;16.33;47.54;101139.56;5037755;28;1123;-59
2024/03/07 07:17:55;;;;;;;;;;;;;;;16.71;47.93;101134.84;5023391;28;1169;-58
2024/03/07 07:20:20;;;;;;;;;;;;;;;16.13;48.18;101145.72;5018001;28;1048;-59
2024/03/07 07:22:47;;;;;;;;;;;;;;;17.68;46.47;101147.34;5031901;28;1959;-56
2024/03/07 07:25:20;;;;;;;;;;;;;;;16.53;48.53;101143.53;5037900;28;1199;-59
2024/03/07 07:27:46;;;;;;;;;;;;;;;16.81;48.23;101149.75;5037722;28;1143;-56
2024/03/07 07:30:12;;;;;;;;;;;;;;;17.15;47.52;101149.38;5037688;28;1091;-55
2024/03/07 07:32:38;;;;;;;;;;;;;;;16.34;48.35;101157.69;5024565;28;1141;-52
2024/03/07 07:35:05;;;;;;;;;;;;;;;16.23;47.79;101140.31;5028842;28;1075;-54
2024/03/07 07:37:30;;;;;;;;;;;;;;;17.34;47.26;101152.50;5032564;28;1122;-56
2024/03/07 07:39:56;;;;;;;;;;;;;;;16.77;47.76;101147.53;5036976;28;1063;-57
2024/03/07 07:42:21;;;;;;;;;;;;;;;16.77;48.37;101150.28;5037140;28;1039;-58
2024/03/07 07:44:47;;;;;;;;;;;;;;;17.90;45.60;101149.88;5036908;28;1918;-57
2024/03/07 07:47:12;;;;;;;;;;;;;;;16.74;47.66;101153.53;5024262;28;1151;-58
2024/03/07 07:49:38;;;;;;;;;;;;;;;16.48;47.62;101157.22;5036604;28;895;-58
2024/03/07 07:52:04;;;;;;;;;;;;;;;17.65;46.32;101160.84;5036940;28;1023;-58
2024/03/07 07:54:29;;;;;;;;;;;;;;;16.91;47.53;101166.31;5028837;28;1190;-59
2024/03/07 07:56:55;;;;;;;;;;;;;;;16.43;47.77;101167.06;5031644;28;1623;-50
2024/03/07 07:59:21;;;;;;;;;;;;;;;16.34;47.90;101163.16;5028409;28;1126;-51
2024/03/07 08:01:46;;;;;;;;;;;;;;;17.27;46.83;101161.00;5031901;28;1115;-53
2024/03/07 08:04:12;;;;;;;;;;;;;;;16.56;47.70;101171.28;5036677;28;1910;-58
2024/03/07 08:06:37;;;;;;;;;;;;;;;16.79;47.87;101173.88;5036952;28;1151;-59
2024/03/07 08:09:03;;;;;;;;;;;;;;;17.49;46.40;101177.28;5037029;28;1128;-60
2024/03/07 08:11:31;;;;;;;;;;;;;;;16.63;47.65;101172.97;5023277;28;1074;-60
2024/03/07 08:13:57;;;;;;;;;;;;;;;16.41;47.51;101169.25;5027236;28;936;-61
2024/03/07 08:16:24;;;;;;;;;;;;;;;16.37;47.94;101175.53;5032559;28;1059;-58
2024/03/07 08:18:49;;;;;;;;;;;;;;;17.17;46.96;101170.00;5036556;28;1246;-58
2024/03/07 08:21:15;;;;;;;;;;;;;;;16.41;47.93;101174.75;5036426;28;1079;-61
2024/03/07 08:23:41;;;;;;;;;;;;;;;16.19;47.72;101176.75;5036618;28;1915;-59
2024/03/07 08:26:06;;;;;;;;;;;;;;;16.85;47.56;101168.16;5033597;28;1043;-60
2024/03/07 08:28:32;;;;;;;;;;;;;;;16.25;48.24;101167.47;5025811;28;1145;-59
2024/03/07 08:30:59;;;;;;;;;;;;;;;16.15;47.39;101175.63;5036266;28;1218;-61
2024/03/07 08:33:24;;;;;;;;;;;;;;;16.43;47.49;101171.75;5036128;28;1071;-61
2024/03/07 08:35:52;;;;;;;;;;;;;;;17.08;47.07;101169.72;5036581;28;1214;-59
2024/03/07 08:38:18;;;;;;;;;;;;;;;16.36;48.03;101169.22;5035929;28;865;-60
2024/03/07 08:40:44;;;;;;;;;;;;;;;17.13;47.23;101170.81;5036427;28;1145;-59
2024/03/07 08:43:10;;;;;;;;;;;;;;;17.23;46.77;101168.94;5036117;28;1981;-58
2024/03/07 08:45:36;;;;;;;;;;;;;;;17.41;46.74;101173.13;5035618;28;1119;-61
2024/03/07 08:48:03;;;;;;;;;;;;;;;18.71;43.68;101174.94;5036785;28;1103;-60
2024/03/07 08:50:29;;;;;;;;;;;;;;;17.38;46.49;101170.09;5035634;28;1019;-59
2024/03/07 08:52:55;;;;;;;;;;;;;;;16.79;47.17;101180.22;5035985;28;1241;-58
2024/03/07 08:55:27;;;;;;;;;;;;;;;16.51;47.26;101182.22;5035898;28;1053;-61
2024/03/07 08:57:54;;;;;;;;;;;;;;;17.12;46.97;101194.72;5036245;28;1120;-59
2024/03/07 09:00:23;;;;;;;;;;;;;;;16.86;47.77;101185.50;5035698;28;1059;-61
2024/03/07 09:02:52;;;;;;;;;;;;;;;18.54;44.12;101188.19;5035438;28;1991;-61
2024/03/07 09:05:17;;;;;;;;;;;;;;;17.50;46.05;101183.59;5034960;28;1168;-60
2024/03/07 09:07:43;;;;;;;;;;;;;;;16.92;46.95;101189.94;5036133;28;1159;-61
2024/03/07 09:10:10;;;;;;;;;;;;;;;16.64;46.66;101189.19;5039207;28;1145;-61
2024/03/07 09:12:36;;;;;;;;;;;;;;;16.47;46.56;101194.00;5039973;28;1173;-60
2024/03/07 09:15:03;;;;;;;;;;;;;;;16.24;46.33;101202.31;5040130;28;1126;-60
2024/03/07 09:17:28;;;;;;;;;;;;;;;16.79;46.61;101201.34;5040338;28;1079;-60
2024/03/07 09:19:54;;;;;;;;;;;;;;;16.79;47.07;101201.34;5040288;28;1086;-58
2024/03/07 09:22:19;;;;;;;;;;;;;;;16.30;47.25;101200.47;5039644;28;1071;-59
2024/03/07 09:24:45;;;;;;;;;;;;;;;17.25;46.41;101202.47;5036035;28;1996;-59
2024/03/07 09:27:10;;;;;;;;;;;;;;;16.48;47.44;101201.13;5035404;28;874;-60
2024/03/07 09:29:36;;;;;;;;;;;;;;;16.19;47.44;101187.75;5039999;28;1047;-58
2024/03/07 09:32:02;;;;;;;;;;;;;;;16.79;47.32;101195.84;5039773;28;1059;-55
2024/03/07 09:34:27;;;;;;;;;;;;;;;16.43;47.97;101197.25;5039180;28;1091;-56
2024/03/07 09:36:54;;;;;;;;;;;;;;;17.05;47.21;101199.63;5039764;28;1274;-56
2024/03/07 09:39:19;;;;;;;;;;;;;;;17.72;45.84;101200.72;5039531;28;1103;-57
2024/03/07 09:41:45;;;;;;;;;;;;;;;16.79;47.62;101195.84;5039670;28;1035;-59
2024/03/07 09:44:14;;;;;;;;;;;;;;;16.73;47.86;101192.25;5038922;28;1909;-58
2024/03/07 09:46:40;;;;;;;;;;;;;;;16.82;47.53;101195.34;5039204;28;909;-54
2024/03/07 09:49:08;;;;;;;;;;;;;;;16.41;47.83;101195.84;5039432;28;1162;-57
2024/03/07 09:51:34;;;;;;;;;;;;;;;17.92;45.51;101207.41;5039171;28;1103;-58
2024/03/07 09:54:00;;;;;;;;;;;;;;;16.84;47.39;101202.22;5037779;28;1162;-57
2024/03/07 09:56:28;;;;;;;;;;;;;;;16.47;47.46;101199.50;5037976;28;1080;-57
2024/03/07 09:58:55;;;;;;;;;;;;;;;16.41;47.59;101207.69;5039312;28;1115;-58
2024/03/07 10:01:21;;;;;;;;;;;;;;;18.10;45.07;101206.06;5039299;28;1067;-60
2024/03/07 10:03:47;;;;;;;;;;;;;;;16.85;47.52;101203.06;5038366;28;1910;-59
2024/03/07 10:06:13;;;;;;;;;;;;;;;16.58;47.11;101203.97;5039198;28;1028;-61
2024/03/07 10:08:40;;;;;;;;;;;;;;;17.23;46.78;101203.84;5038812;28;1046;-55
2024/03/07 10:11:06;;;;;;;;;;;;;;;16.53;47.55;101199.25;5037573;28;953;-58
2024/03/07 10:13:31;;;;;;;;;;;;;;;16.18;47.50;101191.56;5038824;28;1114;-59
2024/03/07 10:15:59;;;;;;;;;;;;;;;17.59;45.94;101195.75;5038252;28;994;-61
2024/03/07 10:18:27;;;;;;;;;;;;;;;16.58;47.58;101195.75;5039098;28;1145;-60
2024/03/07 10:20:55;;;;;;;;;;;;;;;16.23;47.55;101186.13;5038154;28;1191;-56
2024/03/07 10:23:21;;;;;;;;;;;;;;;16.51;47.79;101182.22;5038751;28;1972;-58
2024/03/07 10:25:46;;;;;;;;;;;;;;;16.85;47.73;101189.31;5038359;28;1095;-58
2024/03/07 10:28:12;;;;;;;;;;;;;;;16.40;47.65;101178.56;5038918;28;1092;-59
2024/03/07 10:30:41;;;;;;;;;;;;;;;18.01;45.04;101178.25;5026042;28;1094;-60
2024/03/07 10:33:07;;;;;;;;;;;;;;;16.83;47.25;101177.75;5038772;28;1149;-60
2024/03/07 10:35:32;;;;;;;;;;;;;;;16.42;47.45;101170.91;5025080;28;1135;-56
2024/03/07 10:38:06;;;;;;;;;;;;;;;17.20;46.68;101174.16;5037844;28;1124;-58
2024/03/07 10:40:32;;;;;;;;;;;;;;;17.40;46.38;101171.50;5038901;28;1242;-58
2024/03/07 10:42:57;;;;;;;;;;;;;;;16.68;47.47;101167.53;5031183;28;1906;-59
2024/03/07 10:45:23;;;;;;;;;;;;;;;16.37;47.29;101168.13;5032520;28;1167;-55
2024/03/07 10:48:00;;;;;;;;;;;;;;;17.25;46.57;101160.41;5038414;28;1411;-59
2024/03/07 10:50:27;;;;;;;;;;;;;;;16.45;47.72;101166.78;5037778;28;1044;-59
2024/03/07 10:53:02;;;;;;;;;;;;;;;16.69;47.63;101170.00;5038448;28;1226;-55
2024/03/07 10:55:36;;;;;;;;;;;;;;;16.91;47.02;101161.66;5037490;28;1419;-57
2024/03/07 10:58:02;;;;;;;;;;;;;;;16.90;47.26;101170.13;5037056;28;1100;-58
2024/03/07 11:00:35;;;;;;;;;;;;;;;18.13;44.55;101167.81;5033090;28;1263;-58
2024/03/07 11:03:02;;;;;;;;;;;;;;;16.86;46.63;101158.84;5026192;28;1950;-58
2024/03/07 11:05:31;;;;;;;;;;;;;;;16.62;46.72;101163.91;5024670;28;1127;-59
2024/03/07 11:08:07;;;;;;;;;;;;;;;16.40;46.45;101159.34;5037993;28;1139;-57
2024/03/07 11:10:32;;;;;;;;;;;;;;;16.26;46.14;101166.41;5038232;28;1031;-58
2024/03/07 11:12:58;;;;;;;;;;;;;;;17.49;45.76;101165.44;5038117;28;1145;-57
2024/03/07 11:15:26;;;;;;;;;;;;;;;16.74;46.91;101167.28;5029340;28;876;-60
2024/03/07 11:17:53;;;;;;;;;;;;;;;16.43;47.12;101161.56;5049335;28;1169;-59
2024/03/07 11:20:22;;;;;;;;;;;;;;;16.11;47.01;101152.53;5056528;28;1210;-58
2024/03/07 11:22:49;;;;;;;;;;;;;;;17.26;46.22;101162.06;5037657;28;1902;-59
2024/03/07 11:25:17;;;;;;;;;;;;;;;17.21;46.16;101153.84;5029778;28;1071;-57
2024/03/07 11:27:44;;;;;;;;;;;;;;;16.50;47.52;101158.59;5030320;28;1131;-60
2024/03/07 11:30:10;;;;;;;;;;;;;;;16.32;47.10;101159.03;5058456;28;1325;-58
2024/03/07 11:32:38;;;;;;;;;;;;;;;17.57;45.89;101156.69;5034514;28;1140;-60
2024/03/07 11:35:07;;;;;;;;;;;;;;;16.68;47.14;101162.84;5026725;28;1024;-60
2024/03/07 11:37:48;;;;;;;;;;;;;;;18.33;43.92;101157.91;5055095;28;1094;-58
2024/03/07 11:40:20;;;;;;;;;;;;;;;17.76;44.68;101166.06;5037184;28;931;-61
2024/03/07 11:42:47;;;;;;;;;;;;;;;16.99;46.21;101168.56;5023764;28;1075;-63
2024/03/07 11:45:24;;;;;;;;;;;;;;;16.75;46.10;101163.44;5037482;28;1214;-62
2024/03/07 11:48:11;;;;;;;;;;;;;;;16.81;46.43;101155.25;5025192;28;1109;-59
2024/03/07 11:50:37;;;;;;;;;;;;;;;16.84;46.76;101149.22;5022392;28;1120;-57
2024/03/07 11:53:05;;;;;;;;;;;;;;;16.74;47.03;101156.28;5037144;28;1095;-60
2024/03/07 11:55:41;;;;;;;;;;;;;;;17.92;44.57;101158.72;5036665;28;1145;-59
2024/03/07 11:58:12;;;;;;;;;;;;;;;16.86;46.58;101152.53;5024516;28;1171;-60
2024/03/07 12:00:42;;;;;;;;;;;;;;;16.90;46.69;101156.41;5023434;28;1180;-60
2024/03/07 12:03:13;;;;;;;;;;;;;;;17.26;45.86;101151.09;5035839;28;1906;-59
2024/03/07 12:05:41;;;;;;;;;;;;;;;16.71;46.40;101145.84;5037187;28;1502;-61
2024/03/07 12:08:07;;;;;;;;;;;;;;;16.54;46.74;101161.66;5023483;28;1095;-57
2024/03/07 12:10:33;;;;;;;;;;;;;;;17.33;45.82;101156.34;5036697;28;1039;-58
2024/03/07 12:13:01;;;;;;;;;;;;;;;16.51;46.79;101162.16;5037105;28;1150;-60
2024/03/07 12:15:26;;;;;;;;;;;;;;;17.59;45.44;101160.81;5036255;28;1131;-59
2024/03/07 12:17:53;;;;;;;;;;;;;;;16.87;46.39;101151.41;5035330;28;1162;-59
2024/03/07 12:20:25;;;;;;;;;;;;;;;16.51;46.58;101157.53;5024386;28;1032;-57
2024/03/07 12:23:02;;;;;;;;;;;;;;;16.45;46.70;101160.50;5064684;28;1910;-58
2024/03/07 12:25:47;;;;;;;;;;;;;;;16.79;46.70;101163.75;5026950;28;1227;-55
2024/03/07 12:28:16;;;;;;;;;;;;;;;16.40;46.51;101166.78;5036352;28;1019;-59
2024/03/07 12:30:52;;;;;;;;;;;;;;;17.70;44.74;101156.16;5036698;28;1067;-58
2024/03/07 12:33:17;;;;;;;;;;;;;;;16.68;46.64;101162.84;5036242;28;995;-58
2024/03/07 12:35:43;;;;;;;;;;;;;;;16.32;46.80;101159.84;5036264;28;1064;-57
2024/03/07 12:38:10;;;;;;;;;;;;;;;16.61;46.56;101156.78;5036395;28;1087;-58
2024/03/07 12:40:39;;;;;;;;;;;;;;;17.02;46.21;101157.03;5034453;28;898;-59
2024/03/07 12:43:14;;;;;;;;;;;;;;;16.46;46.68;101159.41;5036519;28;1926;-58
2024/03/07 12:45:52;;;;;;;;;;;;;;;17.90;44.55;101160.06;5036166;28;1116;-56